Terminal Aerodrome Forecast
Issued by NWS Cleveland, OH

Home | Current Version | Previous Version | Text Only | Print | Product List | Glossary Off
Versions: 1 2 3 4 5 6 7 8 9 10 11 12 13 14

276
FTUS41 KCLE 161138
TAFERI
TAF
KERI 161138Z 1612/1712 19005KT P6SM SCT250
     FM161430 02005KT P6SM FEW045
     FM162100 02007KT P6SM FEW250
     FM170200 10005KT P6SM FEW250
     FM170600 14007KT P6SM SCT250=

USA.gov is the U.S. government's official web portal to all federal, state and local government web resources and services.